Pamlico — WX6900 — position and weather

sailwx.info

Track history (hours):
 
Tides and Currents Weather Stations Pressure Air Temp Water Temp Dewpoint Dewpoint Depression Visibility Wind Speed Wind Dir Waves Ship Positions

Pamlico

Owner: PCS Phosphate, AURORA, NC. More information available from US FCC via Universal Licensing System and Coast Guard Vessel Documentation Center.

Last reported at 2015-Aug-30 05:33 UTC. Time now 2015-Aug-30 05:55 UTC.
Position N 35°23' W 076°46'.

Length 30 m; draft 3 m.

MMSI: 367361220.

Date/timePositionNaut miles runAvg speedWind from/ knotsBaromVisibWave heightAir tempDewpointWater temp
2015-Aug-30 05:33N 35°23' W 076°46'  
2015-Aug-27 21:22N 34°59' W 076°41'5 6.1
2015-Aug-27 20:34N 34°54' W 076°40'6 5.5
2015-Aug-27 19:34N 34°49' W 076°41'6 5.7
2015-Aug-27 18:34N 34°43' W 076°42'0 0.0
2015-Aug-27 17:34N 34°43' W 076°42'0 0.0
2015-Aug-27 16:34N 34°43' W 076°42'0 0.0
2015-Aug-27 15:34N 34°43' W 076°42'0 0.0
2015-Aug-27 14:34N 34°43' W 076°42'0 0.0
2015-Aug-27 13:34N 34°43' W 076°42'0 0.0
2015-Aug-27 12:34N 34°43' W 076°42'0 0.0
2015-Aug-27 11:34N 34°43' W 076°42'0 0.0
2015-Aug-27 10:34N 34°43' W 076°42'0 0.0
2015-Aug-27 09:34N 34°43' W 076°42'0 0.0
2015-Aug-27 08:33N 34°43' W 076°42'0 0.0
2015-Aug-27 07:34N 34°43' W 076°42'0 0.0
2015-Aug-27 06:34N 34°43' W 076°42'0 0.0
2015-Aug-27 05:34N 34°43' W 076°42'0 0.0
2015-Aug-27 04:34N 34°43' W 076°42'0 0.0
2015-Aug-27 03:33N 34°43' W 076°42'0 0.0
2015-Aug-27 02:34N 34°43' W 076°42'0 0.0
2015-Aug-27 01:33N 34°43' W 076°42'0 0.1
2015-Aug-27 00:34N 34°43' W 076°42'4 4.2
2015-Aug-26 23:34N 34°47' W 076°41'5 4.8
2015-Aug-26 22:34N 34°52' W 076°42'4 4.5
2015-Aug-26 21:34N 34°56' W 076°40'  
2015-Aug-24 05:22N 35°04' W 076°34'7 8.6
2015-Aug-24 04:33N 34°59' W 076°41'6 5.9
2015-Aug-24 03:34N 34°54' W 076°41'6 5.6
2015-Aug-24 02:34N 34°48' W 076°41'5 4.6
2015-Aug-24 01:33N 34°43' W 076°42'3 2.6
2015-Aug-24 00:34N 34°46' W 076°41'5 5.2
2015-Aug-23 23:33N 34°51' W 076°41'5 5.0
2015-Aug-23 22:34N 34°56' W 076°39'5 0.1
2015-Aug-22 05:24N 35°01' W 076°39'5 6.1
2015-Aug-22 04:34N 34°56' W 076°39'6 6.2
2015-Aug-22 03:34N 34°50' W 076°41'6 6.5
2015-Aug-22 02:34N 34°43' W 076°42'0 0.0
2015-Aug-22 01:34N 34°43' W 076°42'0 0.0
2015-Aug-22 00:34N 34°43' W 076°42'0 0.0
2015-Aug-21 23:34N 34°43' W 076°42'0 0.0
2015-Aug-21 22:34N 34°43' W 076°42'0 0.0
2015-Aug-21 21:34N 34°43' W 076°42'0 0.0
2015-Aug-21 20:34N 34°43' W 076°42'0 0.0
2015-Aug-21 19:34N 34°43' W 076°42'0 0.0
2015-Aug-21 18:34N 34°43' W 076°42'0 0.0
2015-Aug-21 17:34N 34°43' W 076°42'0 0.0
2015-Aug-21 16:34N 34°43' W 076°42'0 0.0
2015-Aug-21 15:34N 34°43' W 076°42'0 0.0
2015-Aug-21 14:34N 34°43' W 076°42'0 0.0
2015-Aug-21 13:34N 34°43' W 076°42'0 0.0
2015-Aug-21 12:34N 34°43' W 076°42'0 0.0
2015-Aug-21 11:34N 34°43' W 076°42'0 0.0
2015-Aug-21 10:34N 34°43' W 076°42'0 0.1
2015-Aug-21 09:33N 34°43' W 076°42'6 5.5
2015-Aug-21 08:33N 34°49' W 076°41'5 4.7
2015-Aug-21 07:33N 34°54' W 076°41'4 4.4
2015-Aug-21 06:33N 34°58' W 076°41'6 6.3
2015-Aug-21 05:33N 35°03' W 076°36'7 6.9
2015-Aug-21 04:33N 35°08' W 076°30'  
Track history (hours):
 
Tides and Currents Weather Stations Pressure Air Temp Water Temp Dewpoint Dewpoint Depression Visibility Wind Speed Wind Dir Waves Ship Positions

Pamlico

Owner: PCS Phosphate, AURORA, NC. More information available from US FCC via Universal Licensing System and Coast Guard Vessel Documentation Center.

Last reported at 2015-Aug-30 05:33 UTC. Time now 2015-Aug-30 05:55 UTC.
Position N 35°23' W 076°46'.

Length 30 m; draft 3 m.

MMSI: 367361220.

Date/timePositionNaut miles runAvg speedWind from/ knotsBaromVisibWave heightAir tempDewpointWater temp
2015-Aug-30 05:33N 35°23' W 076°46'  
2015-Aug-27 21:22N 34°59' W 076°41'5 6.1
2015-Aug-27 20:34N 34°54' W 076°40'6 5.5
2015-Aug-27 19:34N 34°49' W 076°41'6 5.7
2015-Aug-27 18:34N 34°43' W 076°42'0 0.0
2015-Aug-27 17:34N 34°43' W 076°42'0 0.0
2015-Aug-27 16:34N 34°43' W 076°42'0 0.0
2015-Aug-27 15:34N 34°43' W 076°42'0 0.0
2015-Aug-27 14:34N 34°43' W 076°42'0 0.0
2015-Aug-27 13:34N 34°43' W 076°42'0 0.0
2015-Aug-27 12:34N 34°43' W 076°42'0 0.0
2015-Aug-27 11:34N 34°43' W 076°42'0 0.0
2015-Aug-27 10:34N 34°43' W 076°42'0 0.0
2015-Aug-27 09:34N 34°43' W 076°42'0 0.0
2015-Aug-27 08:33N 34°43' W 076°42'0 0.0
2015-Aug-27 07:34N 34°43' W 076°42'0 0.0
2015-Aug-27 06:34N 34°43' W 076°42'0 0.0
2015-Aug-27 05:34N 34°43' W 076°42'0 0.0
2015-Aug-27 04:34N 34°43' W 076°42'0 0.0
2015-Aug-27 03:33N 34°43' W 076°42'0 0.0
2015-Aug-27 02:34N 34°43' W 076°42'0 0.0
2015-Aug-27 01:33N 34°43' W 076°42'0 0.1
2015-Aug-27 00:34N 34°43' W 076°42'4 4.2
2015-Aug-26 23:34N 34°47' W 076°41'5 4.8
2015-Aug-26 22:34N 34°52' W 076°42'4 4.5
2015-Aug-26 21:34N 34°56' W 076°40'  
2015-Aug-24 05:22N 35°04' W 076°34'7 8.6
2015-Aug-24 04:33N 34°59' W 076°41'6 5.9
2015-Aug-24 03:34N 34°54' W 076°41'6 5.6
2015-Aug-24 02:34N 34°48' W 076°41'5 4.6
2015-Aug-24 01:33N 34°43' W 076°42'3 2.6
2015-Aug-24 00:34N 34°46' W 076°41'5 5.2
2015-Aug-23 23:33N 34°51' W 076°41'5 5.0
2015-Aug-23 22:34N 34°56' W 076°39'5 0.1
2015-Aug-22 05:24N 35°01' W 076°39'5 6.1
2015-Aug-22 04:34N 34°56' W 076°39'6 6.2
2015-Aug-22 03:34N 34°50' W 076°41'6 6.5
2015-Aug-22 02:34N 34°43' W 076°42'0 0.0
2015-Aug-22 01:34N 34°43' W 076°42'0 0.0
2015-Aug-22 00:34N 34°43' W 076°42'0 0.0
2015-Aug-21 23:34N 34°43' W 076°42'0 0.0
2015-Aug-21 22:34N 34°43' W 076°42'0 0.0
2015-Aug-21 21:34N 34°43' W 076°42'0 0.0
2015-Aug-21 20:34N 34°43' W 076°42'0 0.0
2015-Aug-21 19:34N 34°43' W 076°42'0 0.0
2015-Aug-21 18:34N 34°43' W 076°42'0 0.0
2015-Aug-21 17:34N 34°43' W 076°42'0 0.0
2015-Aug-21 16:34N 34°43' W 076°42'0 0.0
2015-Aug-21 15:34N 34°43' W 076°42'0 0.0
2015-Aug-21 14:34N 34°43' W 076°42'0 0.0
2015-Aug-21 13:34N 34°43' W 076°42'0 0.0
2015-Aug-21 12:34N 34°43' W 076°42'0 0.0
2015-Aug-21 11:34N 34°43' W 076°42'0 0.0
2015-Aug-21 10:34N 34°43' W 076°42'0 0.1
2015-Aug-21 09:33N 34°43' W 076°42'6 5.5
2015-Aug-21 08:33N 34°49' W 076°41'5 4.7
2015-Aug-21 07:33N 34°54' W 076°41'4 4.4
2015-Aug-21 06:33N 34°58' W 076°41'6 6.3
2015-Aug-21 05:33N 35°03' W 076°36'7 6.9
2015-Aug-21 04:33N 35°08' W 076°30'  

Dump ship's entire track history